createdAt,value
2022-12-12T00:04:06.337Z,1.50
2022-12-12T00:09:10.526Z,1.40
2022-12-12T00:14:15.723Z,1.40
2022-12-12T00:19:19.628Z,1.30
2022-12-12T00:24:24.094Z,1.30
2022-12-12T00:29:29.168Z,1.30
2022-12-12T00:34:32.862Z,1.20
2022-12-12T00:39:36.858Z,1.20
2022-12-12T00:44:42.290Z,1.10
2022-12-12T00:49:45.959Z,1.10
2022-12-12T00:54:49.615Z,1.10
2022-12-12T00:59:54.671Z,1.00
2022-12-12T01:04:58.466Z,1.00
2022-12-12T01:10:02.196Z,1.00
2022-12-12T01:15:09.639Z,1.00
2022-12-12T01:20:19.205Z,1.00
2022-12-12T01:25:23.163Z,1.00
2022-12-12T01:30:29.057Z,1.00
2022-12-12T01:35:33.710Z,0.90
2022-12-12T01:40:37.415Z,0.90
2022-12-12T01:46:25.759Z,0.80
2022-12-12T01:51:30.799Z,0.90
2022-12-12T01:56:35.885Z,0.80
2022-12-12T02:01:42.250Z,0.80
2022-12-12T02:06:47.164Z,0.70
2022-12-12T02:11:52.993Z,0.80
2022-12-12T02:17:30.376Z,0.70
2022-12-12T02:22:52.644Z,0.70
2022-12-12T02:28:09.697Z,0.60
2022-12-12T02:33:27.990Z,0.60
2022-12-12T02:38:40.851Z,0.50
2022-12-12T02:43:53.112Z,0.50
2022-12-12T02:49:03.074Z,0.50
2022-12-12T02:54:13.224Z,0.50
2022-12-12T02:59:25.556Z,0.40
2022-12-12T03:04:54.090Z,0.40
2022-12-12T03:10:05.626Z,0.30
2022-12-12T03:15:18.463Z,0.30
2022-12-12T03:20:27.697Z,0.30
2022-12-12T03:25:37.982Z,0.20
2022-12-12T03:30:45.212Z,0.20
2022-12-12T03:35:56.351Z,0.20
2022-12-12T03:41:03.560Z,0.20
2022-12-12T03:46:12.967Z,0.10
2022-12-12T03:51:24.692Z,0.10
2022-12-12T03:56:32.084Z,0.10
2022-12-12T04:01:40.986Z,0.10
2022-12-12T04:06:52.300Z,0.10
2022-12-12T04:12:19.141Z,0.10
2022-12-12T04:17:30.898Z,0.10
2022-12-12T04:22:57.523Z,0.10
2022-12-12T04:28:03.439Z,0.00
2022-12-12T04:33:12.480Z,0.00
2022-12-12T04:38:21.931Z,0.00
2022-12-12T04:43:31.536Z,0.00
2022-12-12T04:48:43.654Z,-0.10
2022-12-12T04:53:53.772Z,-0.10
2022-12-12T04:58:58.686Z,-0.10
2022-12-12T05:04:07.247Z,-0.20
2022-12-12T05:09:13.912Z,-0.20
2022-12-12T05:14:18.448Z,-0.20
2022-12-12T05:19:22.142Z,-0.30
2022-12-12T05:24:30.825Z,-0.30
2022-12-12T05:29:34.576Z,-0.30
2022-12-12T05:34:38.248Z,-0.30
2022-12-12T05:39:43.644Z,-0.40
2022-12-12T05:44:47.466Z,-0.40
2022-12-12T05:49:51.493Z,-0.40
2022-12-12T05:54:58.254Z,-0.40
2022-12-12T06:00:02.172Z,-0.40
2022-12-12T06:05:11.842Z,-0.40
2022-12-12T06:10:17.208Z,-0.40
2022-12-12T06:15:20.949Z,-0.50
2022-12-12T06:20:24.757Z,-0.50
2022-12-12T06:25:29.960Z,-0.50
2022-12-12T06:30:33.729Z,-0.50
2022-12-12T06:35:37.367Z,-0.50
2022-12-12T06:40:42.502Z,-0.60
2022-12-12T06:45:46.199Z,-0.60
2022-12-12T06:50:49.870Z,-0.60
2022-12-12T06:55:55.005Z,-0.60
2022-12-12T07:00:58.658Z,-0.60
2022-12-12T07:06:02.625Z,-0.60
2022-12-12T07:11:09.429Z,-0.60
2022-12-12T07:16:13.190Z,-0.70
2022-12-12T07:21:18.564Z,-0.60
2022-12-12T07:26:24.847Z,-0.60
2022-12-12T07:31:29.125Z,-0.60
2022-12-12T07:36:32.957Z,-0.70
2022-12-12T07:41:40.897Z,-0.70
2022-12-12T07:46:44.805Z,-0.70
2022-12-12T07:51:49.370Z,-0.70
2022-12-12T07:56:54.707Z,-0.70
2022-12-12T08:01:58.506Z,-0.70
2022-12-12T08:07:08.082Z,-0.70
2022-12-12T08:12:14.079Z,-0.70
2022-12-12T08:17:17.924Z,-0.70
2022-12-12T08:22:21.853Z,-0.70
2022-12-12T08:27:27.215Z,-0.70
2022-12-12T08:32:31.036Z,-0.70
2022-12-12T08:37:35.600Z,-0.70
2022-12-12T08:42:41.360Z,-0.60
2022-12-12T08:47:45.012Z,-0.60
2022-12-12T08:52:48.582Z,-0.60
2022-12-12T08:57:53.559Z,-0.60
2022-12-12T09:02:57.227Z,-0.50
2022-12-12T09:08:01.103Z,-0.50
2022-12-12T09:13:07.188Z,-0.50
2022-12-12T09:18:10.897Z,-0.40
2022-12-12T09:23:14.559Z,-0.50
2022-12-12T09:28:21.851Z,-0.40
2022-12-12T09:33:25.475Z,-0.40
2022-12-12T09:38:29.444Z,-0.40
2022-12-12T09:43:38.207Z,-0.30
2022-12-12T09:48:45.596Z,-0.30
2022-12-12T09:53:51.547Z,-0.30
2022-12-12T09:59:00.656Z,-0.30
2022-12-12T10:04:13.933Z,-0.20
2022-12-12T10:09:36.128Z,0.00
2022-12-12T10:14:45.345Z,0.20
2022-12-12T10:19:51.699Z,0.20
2022-12-12T10:25:00.887Z,0.20
2022-12-12T10:30:18.283Z,0.30
2022-12-12T10:35:28.818Z,0.30
2022-12-12T10:40:45.626Z,0.40
2022-12-12T10:46:14.056Z,0.40
2022-12-12T10:51:20.754Z,0.50
2022-12-12T10:56:26.162Z,0.50
2022-12-12T11:02:07.812Z,0.50
2022-12-12T11:06:58.157Z,0.60
2022-12-12T11:12:04.338Z,0.60
2022-12-12T11:17:22.600Z,0.60
2022-12-12T11:22:26.945Z,0.60
2022-12-12T11:27:33.946Z,0.70
2022-12-12T11:32:40.908Z,0.70
2022-12-12T11:37:47.311Z,0.80
2022-12-12T11:42:51.285Z,0.70
2022-12-12T11:47:56.625Z,0.80
2022-12-12T11:53:01.682Z,0.90
2022-12-12T11:58:18.606Z,0.90
2022-12-12T12:03:53.203Z,1.00
2022-12-12T12:09:18.447Z,1.00
2022-12-12T12:14:32.513Z,1.00
2022-12-12T12:19:45.120Z,1.10
2022-12-12T12:25:16.821Z,1.10
2022-12-12T12:30:24.918Z,1.10
2022-12-12T12:35:32.822Z,1.10
2022-12-12T12:40:51.089Z,1.10
2022-12-12T12:45:59.967Z,1.10
2022-12-12T12:51:11.689Z,1.20
2022-12-12T12:56:26.325Z,1.20
2022-12-12T13:01:35.309Z,1.30
2022-12-12T13:06:47.319Z,1.30
2022-12-12T13:11:55.460Z,1.40
2022-12-12T13:17:06.429Z,1.40
2022-12-12T13:22:17.600Z,1.40
2022-12-12T13:27:26.366Z,1.40
2022-12-12T13:33:06.919Z,1.40
2022-12-12T13:38:20.310Z,1.40
2022-12-12T13:43:30.562Z,1.40
2022-12-12T13:48:46.774Z,1.40
2022-12-12T13:53:59.875Z,1.50
2022-12-12T13:59:03.545Z,1.50
2022-12-12T14:04:07.942Z,1.50
2022-12-12T14:09:22.373Z,1.50
2022-12-12T14:14:26.509Z,1.50
2022-12-12T14:19:35.333Z,1.50
2022-12-12T14:25:29.494Z,1.50
2022-12-12T14:30:41.288Z,1.40
2022-12-12T14:35:51.992Z,1.40
2022-12-12T14:41:01.407Z,1.40
2022-12-12T14:46:06.661Z,1.40
2022-12-12T14:51:14.762Z,1.40
2022-12-12T14:56:22.796Z,1.40
2022-12-12T15:01:33.223Z,1.40
2022-12-12T15:06:39.152Z,1.40
2022-12-12T15:11:45.036Z,1.30
2022-12-12T15:16:53.099Z,1.30
2022-12-12T15:21:58.153Z,1.30
2022-12-12T15:27:05.582Z,1.20
2022-12-12T15:32:16.854Z,1.10
2022-12-12T15:37:24.199Z,1.10
2022-12-12T15:42:29.910Z,1.00
2022-12-12T15:47:33.881Z,1.00
2022-12-12T15:52:37.738Z,0.90
2022-12-12T15:57:48.087Z,0.90
2022-12-12T16:02:59.805Z,0.90
2022-12-12T16:08:32.115Z,0.80
2022-12-12T16:13:39.823Z,0.80
2022-12-12T16:18:44.162Z,0.70
2022-12-12T16:23:47.923Z,0.70
2022-12-12T16:28:52.961Z,0.70
2022-12-12T16:33:56.726Z,0.60
2022-12-12T16:39:00.431Z,0.60
2022-12-12T16:44:05.586Z,0.60
2022-12-12T16:49:15.029Z,0.50
2022-12-12T16:54:19.272Z,0.50
2022-12-12T16:59:24.635Z,0.50
2022-12-12T17:04:28.731Z,0.50
2022-12-12T17:09:32.428Z,0.50
2022-12-12T17:14:38.293Z,0.40
2022-12-12T17:19:41.937Z,0.40
2022-12-12T17:24:45.625Z,0.40
2022-12-12T17:29:51.172Z,0.40
2022-12-12T17:34:55.192Z,0.30
2022-12-12T17:39:59.121Z,0.30
2022-12-12T17:45:06.152Z,0.30
2022-12-12T17:50:11.048Z,0.30
2022-12-12T17:55:53.188Z,0.30
2022-12-12T18:00:40.373Z,0.30
2022-12-12T18:05:44.109Z,0.30
2022-12-12T18:10:47.763Z,0.30
2022-12-12T18:15:56.752Z,0.30
2022-12-12T18:21:04.748Z,0.30
2022-12-12T18:26:10.177Z,0.20
2022-12-12T18:31:15.690Z,0.20
2022-12-12T18:36:22.491Z,0.20
2022-12-12T18:41:27.406Z,0.20
2022-12-12T18:46:37.180Z,0.20
2022-12-12T18:51:44.881Z,0.20
2022-12-12T18:56:48.775Z,0.20
2022-12-12T19:01:53.971Z,0.10
2022-12-12T19:06:58.680Z,0.10
2022-12-12T19:12:02.908Z,0.10
2022-12-12T19:17:08.126Z,0.20
2022-12-12T19:22:39.867Z,0.10
2022-12-12T19:27:35.732Z,0.10
2022-12-12T19:32:40.843Z,0.10
2022-12-12T19:37:44.604Z,0.10
2022-12-12T19:42:48.286Z,0.10
2022-12-12T19:47:53.387Z,0.00
2022-12-12T19:52:57.162Z,0.00
2022-12-12T19:58:02.504Z,0.00
2022-12-12T20:03:07.609Z,0.00
2022-12-12T20:08:11.295Z,0.00
2022-12-12T20:13:15.004Z,0.00
2022-12-12T20:18:20.138Z,0.00
2022-12-12T20:23:23.914Z,0.00
2022-12-12T20:28:27.620Z,0.00
2022-12-12T20:33:32.736Z,-0.10
2022-12-12T20:38:38.167Z,-0.10
2022-12-12T20:43:42.260Z,-0.10
2022-12-12T20:48:48.212Z,-0.10
2022-12-12T20:53:55.068Z,-0.10
2022-12-12T20:59:01.582Z,-0.20
2022-12-12T21:04:09.575Z,-0.20
2022-12-12T21:09:19.174Z,-0.20
2022-12-12T21:14:28.184Z,-0.20
2022-12-12T21:19:33.261Z,-0.20
2022-12-12T21:24:37.116Z,-0.20
2022-12-12T21:29:40.862Z,-0.20
2022-12-12T21:34:45.886Z,-0.20
2022-12-12T21:39:51.286Z,-0.30
2022-12-12T21:44:54.996Z,-0.30
2022-12-12T21:50:00.252Z,-0.30
2022-12-12T21:55:04.021Z,-0.30
2022-12-12T22:00:09.393Z,-0.30
2022-12-12T22:05:17.776Z,-0.40
2022-12-12T22:10:21.604Z,-0.40
2022-12-12T22:15:25.313Z,-0.40
2022-12-12T22:20:30.351Z,-0.40
2022-12-12T22:25:34.650Z,-0.40
2022-12-12T22:30:38.430Z,-0.40
2022-12-12T22:35:43.524Z,-0.40
2022-12-12T22:40:54.915Z,-0.40
2022-12-12T22:46:03.021Z,-0.50
2022-12-12T22:51:16.019Z,-0.50
2022-12-12T22:56:19.787Z,-0.50
2022-12-12T23:01:24.511Z,-0.50
2022-12-12T23:06:31.275Z,-0.50
2022-12-12T23:11:35.605Z,-0.60
2022-12-12T23:16:39.329Z,-0.60
2022-12-12T23:21:44.509Z,-0.60
2022-12-12T23:26:51.881Z,-0.60
2022-12-12T23:31:58.714Z,-0.60
2022-12-12T23:37:03.906Z,-0.70
2022-12-12T23:42:07.660Z,-0.70
2022-12-12T23:47:11.663Z,-0.70
2022-12-12T23:52:17.532Z,-0.70
2022-12-12T23:57:22.820Z,-0.70
